sensor_id;sensor_type;location;lat;lon;timestamp;P1;durP1;ratioP1;P2;durP2;ratioP2
56997;SDS011;42890;44.244;22.530;2022-10-31T00:02:26;23.60;;;19.48;;
56997;SDS011;42890;44.244;22.530;2022-10-31T00:04:52;21.27;;;17.73;;
56997;SDS011;42890;44.244;22.530;2022-10-31T00:07:18;21.48;;;18.38;;
56997;SDS011;42890;44.244;22.530;2022-10-31T00:09:44;23.25;;;19.40;;
56997;SDS011;42890;44.244;22.530;2022-10-31T00:12:10;28.75;;;23.23;;
56997;SDS011;42890;44.244;22.530;2022-10-31T00:14:36;26.65;;;22.10;;
56997;SDS011;42890;44.244;22.530;2022-10-31T00:17:03;26.35;;;21.77;;
56997;SDS011;42890;44.244;22.530;2022-10-31T00:19:29;22.95;;;20.50;;
56997;SDS011;42890;44.244;22.530;2022-10-31T00:21:55;20.90;;;18.60;;
56997;SDS011;42890;44.244;22.530;2022-10-31T00:24:21;27.15;;;20.08;;
56997;SDS011;42890;44.244;22.530;2022-10-31T00:26:47;23.92;;;20.20;;
56997;SDS011;42890;44.244;22.530;2022-10-31T00:29:13;22.58;;;20.20;;
56997;SDS011;42890;44.244;22.530;2022-10-31T00:31:39;26.45;;;22.92;;
56997;SDS011;42890;44.244;22.530;2022-10-31T00:34:05;29.83;;;26.60;;
56997;SDS011;42890;44.244;22.530;2022-10-31T00:36:32;38.63;;;33.70;;
56997;SDS011;42890;44.244;22.530;2022-10-31T00:38:58;46.38;;;39.85;;
56997;SDS011;42890;44.244;22.530;2022-10-31T00:41:24;53.45;;;41.83;;
56997;SDS011;42890;44.244;22.530;2022-10-31T00:43:50;40.47;;;36.08;;
56997;SDS011;42890;44.244;22.530;2022-10-31T00:46:16;39.80;;;30.63;;
56997;SDS011;42890;44.244;22.530;2022-10-31T00:48:42;35.70;;;28.05;;
56997;SDS011;42890;44.244;22.530;2022-10-31T00:51:09;30.90;;;26.63;;
56997;SDS011;42890;44.244;22.530;2022-10-31T00:53:35;34.22;;;25.65;;
56997;SDS011;42890;44.244;22.530;2022-10-31T00:56:01;31.27;;;25.30;;
56997;SDS011;42890;44.244;22.530;2022-10-31T00:58:27;27.73;;;24.80;;
56997;SDS011;42890;44.244;22.530;2022-10-31T01:00:54;27.25;;;23.60;;
56997;SDS011;42890;44.244;22.530;2022-10-31T01:03:24;30.17;;;26.98;;
56997;SDS011;42890;44.244;22.530;2022-10-31T01:08:22;31.35;;;25.85;;
56997;SDS011;42890;44.244;22.530;2022-10-31T01:11:10;25.35;;;22.63;;
56997;SDS011;42890;44.244;22.530;2022-10-31T01:13:35;27.48;;;22.88;;
56997;SDS011;42890;44.244;22.530;2022-10-31T01:16:01;22.77;;;20.45;;
56997;SDS011;42890;44.244;22.530;2022-10-31T01:18:28;19.60;;;17.60;;
56997;SDS011;42890;44.244;22.530;2022-10-31T01:21:02;23.08;;;19.30;;
56997;SDS011;42890;44.244;22.530;2022-10-31T01:23:29;20.45;;;18.27;;
56997;SDS011;42890;44.244;22.530;2022-10-31T01:25:59;21.75;;;17.00;;
56997;SDS011;42890;44.244;22.530;2022-10-31T01:28:25;18.52;;;16.70;;
56997;SDS011;42890;44.244;22.530;2022-10-31T01:30:51;18.65;;;14.40;;
56997;SDS011;42890;44.244;22.530;2022-10-31T01:33:17;16.45;;;14.75;;
56997;SDS011;42890;44.244;22.530;2022-10-31T01:35:44;21.08;;;14.65;;
56997;SDS011;42890;44.244;22.530;2022-10-31T01:38:10;17.73;;;15.48;;
56997;SDS011;42890;44.244;22.530;2022-10-31T01:40:36;17.38;;;14.88;;
56997;SDS011;42890;44.244;22.530;2022-10-31T01:43:02;20.48;;;16.65;;
56997;SDS011;42890;44.244;22.530;2022-10-31T01:45:28;22.05;;;17.70;;
56997;SDS011;42890;44.244;22.530;2022-10-31T01:47:54;21.83;;;17.48;;
56997;SDS011;42890;44.244;22.530;2022-10-31T01:52:50;19.45;;;17.45;;
56997;SDS011;42890;44.244;22.530;2022-10-31T01:57:46;20.15;;;17.98;;
56997;SDS011;42890;44.244;22.530;2022-10-31T02:00:14;20.73;;;18.40;;
56997;SDS011;42890;44.244;22.530;2022-10-31T02:02:41;27.98;;;25.23;;
56997;SDS011;42890;44.244;22.530;2022-10-31T02:05:09;24.88;;;22.17;;
56997;SDS011;42890;44.244;22.530;2022-10-31T02:10:08;48.17;;;42.00;;
56997;SDS011;42890;44.244;22.530;2022-10-31T02:12:34;27.13;;;23.55;;
56997;SDS011;42890;44.244;22.530;2022-10-31T02:15:04;24.50;;;22.10;;
56997;SDS011;42890;44.244;22.530;2022-10-31T02:17:31;32.80;;;28.73;;
56997;SDS011;42890;44.244;22.530;2022-10-31T02:22:32;35.67;;;31.50;;
56997;SDS011;42890;44.244;22.530;2022-10-31T02:37:50;32.17;;;27.65;;
56997;SDS011;42890;44.244;22.530;2022-10-31T02:42:51;29.88;;;25.73;;
56997;SDS011;42890;44.244;22.530;2022-10-31T02:47:56;35.53;;;26.80;;
56997;SDS011;42890;44.244;22.530;2022-10-31T02:50:31;32.53;;;28.73;;
56997;SDS011;42890;44.244;22.530;2022-10-31T02:52:58;36.53;;;31.33;;
56997;SDS011;42890;44.244;22.530;2022-10-31T02:57:51;28.08;;;24.48;;
56997;SDS011;42890;44.244;22.530;2022-10-31T03:00:18;26.33;;;23.70;;
56997;SDS011;42890;44.244;22.530;2022-10-31T03:15:22;25.80;;;19.38;;
56997;SDS011;42890;44.244;22.530;2022-10-31T03:17:57;22.70;;;20.58;;
56997;SDS011;42890;44.244;22.530;2022-10-31T03:20:27;24.25;;;20.35;;
56997;SDS011;42890;44.244;22.530;2022-10-31T03:22:54;23.63;;;21.23;;
56997;SDS011;42890;44.244;22.530;2022-10-31T03:25:21;21.70;;;19.38;;
56997;SDS011;42890;44.244;22.530;2022-10-31T03:27:48;23.77;;;20.23;;
56997;SDS011;42890;44.244;22.530;2022-10-31T03:30:15;24.15;;;21.63;;
56997;SDS011;42890;44.244;22.530;2022-10-31T03:32:46;27.65;;;22.83;;
56997;SDS011;42890;44.244;22.530;2022-10-31T03:35:14;29.33;;;24.38;;
56997;SDS011;42890;44.244;22.530;2022-10-31T03:37:42;27.02;;;22.20;;
56997;SDS011;42890;44.244;22.530;2022-10-31T03:40:08;25.55;;;21.85;;
56997;SDS011;42890;44.244;22.530;2022-10-31T03:42:37;25.30;;;22.60;;
56997;SDS011;42890;44.244;22.530;2022-10-31T03:45:11;26.13;;;23.40;;
56997;SDS011;42890;44.244;22.530;2022-10-31T03:47:38;26.08;;;23.48;;
56997;SDS011;42890;44.244;22.530;2022-10-31T03:50:05;27.60;;;23.08;;
56997;SDS011;42890;44.244;22.530;2022-10-31T03:52:48;24.15;;;21.58;;
56997;SDS011;42890;44.244;22.530;2022-10-31T03:55:19;27.40;;;22.80;;
56997;SDS011;42890;44.244;22.530;2022-10-31T04:00:12;22.27;;;19.73;;
56997;SDS011;42890;44.244;22.530;2022-10-31T04:02:41;25.65;;;21.67;;
56997;SDS011;42890;44.244;22.530;2022-10-31T04:05:08;24.73;;;22.27;;
56997;SDS011;42890;44.244;22.530;2022-10-31T04:07:41;26.00;;;23.25;;
56997;SDS011;42890;44.244;22.530;2022-10-31T04:10:10;31.40;;;25.70;;
56997;SDS011;42890;44.244;22.530;2022-10-31T04:12:37;29.85;;;26.60;;
56997;SDS011;42890;44.244;22.530;2022-10-31T04:15:04;31.02;;;27.83;;
56997;SDS011;42890;44.244;22.530;2022-10-31T04:17:32;33.97;;;30.35;;
56997;SDS011;42890;44.244;22.530;2022-10-31T04:19:59;35.63;;;31.67;;
56997;SDS011;42890;44.244;22.530;2022-10-31T04:22:26;36.50;;;30.92;;
56997;SDS011;42890;44.244;22.530;2022-10-31T04:24:52;33.80;;;30.40;;
56997;SDS011;42890;44.244;22.530;2022-10-31T04:27:18;33.67;;;30.17;;
56997;SDS011;42890;44.244;22.530;2022-10-31T04:29:44;54.63;;;41.28;;
56997;SDS011;42890;44.244;22.530;2022-10-31T04:32:10;39.67;;;34.03;;
56997;SDS011;42890;44.244;22.530;2022-10-31T04:34:36;37.05;;;32.17;;
56997;SDS011;42890;44.244;22.530;2022-10-31T04:37:03;40.88;;;36.63;;
56997;SDS011;42890;44.244;22.530;2022-10-31T04:39:29;63.47;;;45.83;;
56997;SDS011;42890;44.244;22.530;2022-10-31T04:41:55;57.42;;;43.80;;
56997;SDS011;42890;44.244;22.530;2022-10-31T04:44:21;42.80;;;37.05;;
56997;SDS011;42890;44.244;22.530;2022-10-31T04:46:47;45.95;;;39.40;;
56997;SDS011;42890;44.244;22.530;2022-10-31T04:49:13;50.50;;;45.00;;
56997;SDS011;42890;44.244;22.530;2022-10-31T04:51:39;46.70;;;39.30;;
56997;SDS011;42890;44.244;22.530;2022-10-31T04:54:05;53.53;;;43.00;;
56997;SDS011;42890;44.244;22.530;2022-10-31T04:56:31;138.18;;;82.32;;
56997;SDS011;42890;44.244;22.530;2022-10-31T04:58:58;162.65;;;86.28;;
56997;SDS011;42890;44.244;22.530;2022-10-31T05:01:24;166.70;;;94.25;;
56997;SDS011;42890;44.244;22.530;2022-10-31T05:03:50;165.52;;;99.95;;
56997;SDS011;42890;44.244;22.530;2022-10-31T05:06:16;150.88;;;99.30;;
56997;SDS011;42890;44.244;22.530;2022-10-31T05:08:42;169.77;;;109.32;;
56997;SDS011;42890;44.244;22.530;2022-10-31T05:11:08;172.10;;;114.20;;
56997;SDS011;42890;44.244;22.530;2022-10-31T05:13:35;149.18;;;100.57;;
56997;SDS011;42890;44.244;22.530;2022-10-31T05:16:01;152.07;;;98.78;;
56997;SDS011;42890;44.244;22.530;2022-10-31T05:18:28;116.53;;;81.97;;
56997;SDS011;42890;44.244;22.530;2022-10-31T05:20:54;79.97;;;65.28;;
56997;SDS011;42890;44.244;22.530;2022-10-31T05:23:20;73.60;;;56.92;;
56997;SDS011;42890;44.244;22.530;2022-10-31T05:25:46;67.93;;;60.72;;
56997;SDS011;42890;44.244;22.530;2022-10-31T05:28:12;68.25;;;61.15;;
56997;SDS011;42890;44.244;22.530;2022-10-31T05:30:38;87.40;;;64.72;;
56997;SDS011;42890;44.244;22.530;2022-10-31T05:33:05;103.30;;;67.30;;
56997;SDS011;42890;44.244;22.530;2022-10-31T05:35:31;75.35;;;64.43;;
56997;SDS011;42890;44.244;22.530;2022-10-31T05:37:58;71.85;;;63.95;;
56997;SDS011;42890;44.244;22.530;2022-10-31T05:40:24;74.32;;;62.70;;
56997;SDS011;42890;44.244;22.530;2022-10-31T05:42:51;64.05;;;57.20;;
56997;SDS011;42890;44.244;22.530;2022-10-31T05:45:18;69.32;;;57.72;;
56997;SDS011;42890;44.244;22.530;2022-10-31T05:47:51;126.15;;;77.85;;
56997;SDS011;42890;44.244;22.530;2022-10-31T05:50:17;104.32;;;70.15;;
56997;SDS011;42890;44.244;22.530;2022-10-31T05:52:44;80.38;;;64.30;;
56997;SDS011;42890;44.244;22.530;2022-10-31T05:55:10;64.35;;;56.35;;
56997;SDS011;42890;44.244;22.530;2022-10-31T05:57:36;61.88;;;52.90;;
56997;SDS011;42890;44.244;22.530;2022-10-31T06:00:03;65.97;;;55.17;;
56997;SDS011;42890;44.244;22.530;2022-10-31T06:02:29;69.72;;;59.58;;
56997;SDS011;42890;44.244;22.530;2022-10-31T06:04:59;53.13;;;47.15;;
56997;SDS011;42890;44.244;22.530;2022-10-31T06:07:26;69.57;;;51.90;;
56997;SDS011;42890;44.244;22.530;2022-10-31T06:09:52;58.45;;;52.55;;
56997;SDS011;42890;44.244;22.530;2022-10-31T06:12:18;49.03;;;43.83;;
56997;SDS011;42890;44.244;22.530;2022-10-31T06:14:44;55.08;;;43.60;;
56997;SDS011;42890;44.244;22.530;2022-10-31T06:17:10;49.70;;;44.47;;
56997;SDS011;42890;44.244;22.530;2022-10-31T06:19:36;54.15;;;48.30;;
56997;SDS011;42890;44.244;22.530;2022-10-31T06:22:03;57.60;;;51.42;;
56997;SDS011;42890;44.244;22.530;2022-10-31T06:24:29;59.00;;;48.42;;
56997;SDS011;42890;44.244;22.530;2022-10-31T06:26:55;55.40;;;49.95;;
56997;SDS011;42890;44.244;22.530;2022-10-31T06:29:21;58.22;;;51.78;;
56997;SDS011;42890;44.244;22.530;2022-10-31T06:31:47;56.58;;;50.45;;
56997;SDS011;42890;44.244;22.530;2022-10-31T06:34:13;55.70;;;48.70;;
56997;SDS011;42890;44.244;22.530;2022-10-31T06:36:39;54.88;;;48.30;;
56997;SDS011;42890;44.244;22.530;2022-10-31T06:39:05;53.70;;;48.15;;
56997;SDS011;42890;44.244;22.530;2022-10-31T06:41:31;57.33;;;50.60;;
56997;SDS011;42890;44.244;22.530;2022-10-31T06:43:58;53.90;;;47.80;;
56997;SDS011;42890;44.244;22.530;2022-10-31T06:46:24;58.58;;;50.67;;
56997;SDS011;42890;44.244;22.530;2022-10-31T06:48:50;58.53;;;50.75;;
56997;SDS011;42890;44.244;22.530;2022-10-31T06:51:16;55.53;;;47.83;;
56997;SDS011;42890;44.244;22.530;2022-10-31T06:53:42;52.47;;;45.97;;
56997;SDS011;42890;44.244;22.530;2022-10-31T06:56:08;51.20;;;45.90;;
56997;SDS011;42890;44.244;22.530;2022-10-31T06:58:34;49.58;;;43.83;;
56997;SDS011;42890;44.244;22.530;2022-10-31T07:01:00;60.67;;;47.33;;
56997;SDS011;42890;44.244;22.530;2022-10-31T07:03:27;44.15;;;36.83;;
56997;SDS011;42890;44.244;22.530;2022-10-31T07:05:54;37.15;;;26.52;;
56997;SDS011;42890;44.244;22.530;2022-10-31T07:08:21;37.40;;;24.17;;
56997;SDS011;42890;44.244;22.530;2022-10-31T07:10:51;30.25;;;25.95;;
56997;SDS011;42890;44.244;22.530;2022-10-31T07:13:17;32.85;;;24.13;;
56997;SDS011;42890;44.244;22.530;2022-10-31T07:15:44;34.17;;;30.45;;
56997;SDS011;42890;44.244;22.530;2022-10-31T07:18:10;49.05;;;43.85;;
56997;SDS011;42890;44.244;22.530;2022-10-31T07:20:37;34.50;;;28.60;;
56997;SDS011;42890;44.244;22.530;2022-10-31T07:23:03;39.97;;;35.80;;
56997;SDS011;42890;44.244;22.530;2022-10-31T07:25:30;37.03;;;32.80;;
56997;SDS011;42890;44.244;22.530;2022-10-31T07:27:56;36.90;;;30.50;;
56997;SDS011;42890;44.244;22.530;2022-10-31T07:30:22;64.00;;;44.97;;
56997;SDS011;42890;44.244;22.530;2022-10-31T07:32:49;52.08;;;35.78;;
56997;SDS011;42890;44.244;22.530;2022-10-31T07:35:16;54.25;;;40.47;;
56997;SDS011;42890;44.244;22.530;2022-10-31T07:37:42;41.45;;;33.78;;
56997;SDS011;42890;44.244;22.530;2022-10-31T07:40:09;49.58;;;38.30;;
56997;SDS011;42890;44.244;22.530;2022-10-31T07:42:35;60.25;;;42.80;;
56997;SDS011;42890;44.244;22.530;2022-10-31T07:45:02;35.40;;;28.95;;
56997;SDS011;42890;44.244;22.530;2022-10-31T07:47:28;32.28;;;28.88;;
56997;SDS011;42890;44.244;22.530;2022-10-31T07:49:54;48.67;;;32.17;;
56997;SDS011;42890;44.244;22.530;2022-10-31T07:52:20;36.83;;;30.15;;
56997;SDS011;42890;44.244;22.530;2022-10-31T07:54:47;36.22;;;30.90;;
56997;SDS011;42890;44.244;22.530;2022-10-31T07:57:13;36.47;;;29.38;;
56997;SDS011;42890;44.244;22.530;2022-10-31T07:59:39;40.38;;;27.02;;
56997;SDS011;42890;44.244;22.530;2022-10-31T08:02:05;33.10;;;27.25;;
56997;SDS011;42890;44.244;22.530;2022-10-31T08:04:32;29.70;;;25.95;;
56997;SDS011;42890;44.244;22.530;2022-10-31T08:06:58;33.08;;;22.70;;
56997;SDS011;42890;44.244;22.530;2022-10-31T08:09:24;27.45;;;24.35;;
56997;SDS011;42890;44.244;22.530;2022-10-31T08:11:50;32.05;;;28.60;;
56997;SDS011;42890;44.244;22.530;2022-10-31T08:14:16;33.53;;;26.85;;
56997;SDS011;42890;44.244;22.530;2022-10-31T08:16:42;38.28;;;30.55;;
56997;SDS011;42890;44.244;22.530;2022-10-31T08:19:08;32.72;;;29.17;;
56997;SDS011;42890;44.244;22.530;2022-10-31T08:21:34;32.92;;;25.98;;
56997;SDS011;42890;44.244;22.530;2022-10-31T08:24:00;29.13;;;23.10;;
56997;SDS011;42890;44.244;22.530;2022-10-31T08:26:26;36.40;;;28.90;;
56997;SDS011;42890;44.244;22.530;2022-10-31T08:28:53;31.77;;;24.58;;
56997;SDS011;42890;44.244;22.530;2022-10-31T08:31:20;34.80;;;23.85;;
56997;SDS011;42890;44.244;22.530;2022-10-31T08:33:46;28.00;;;21.73;;
56997;SDS011;42890;44.244;22.530;2022-10-31T08:36:12;20.55;;;15.13;;
56997;SDS011;42890;44.244;22.530;2022-10-31T08:38:38;26.73;;;20.45;;
56997;SDS011;42890;44.244;22.530;2022-10-31T08:41:04;21.83;;;17.52;;
56997;SDS011;42890;44.244;22.530;2022-10-31T08:43:31;20.65;;;15.20;;
56997;SDS011;42890;44.244;22.530;2022-10-31T08:45:57;19.73;;;14.23;;
56997;SDS011;42890;44.244;22.530;2022-10-31T08:48:23;22.27;;;14.32;;
56997;SDS011;42890;44.244;22.530;2022-10-31T08:50:49;18.67;;;10.82;;
56997;SDS011;42890;44.244;22.530;2022-10-31T08:53:18;15.52;;;10.30;;
56997;SDS011;42890;44.244;22.530;2022-10-31T08:55:46;13.98;;;8.85;;
56997;SDS011;42890;44.244;22.530;2022-10-31T08:58:13;29.83;;;9.43;;
56997;SDS011;42890;44.244;22.530;2022-10-31T09:00:40;13.70;;;9.18;;
56997;SDS011;42890;44.244;22.530;2022-10-31T09:03:17;12.10;;;8.65;;
56997;SDS011;42890;44.244;22.530;2022-10-31T09:05:43;14.13;;;8.27;;
56997;SDS011;42890;44.244;22.530;2022-10-31T09:08:10;13.32;;;7.97;;
56997;SDS011;42890;44.244;22.530;2022-10-31T09:10:37;13.50;;;8.35;;
56997;SDS011;42890;44.244;22.530;2022-10-31T09:13:08;12.98;;;8.68;;
56997;SDS011;42890;44.244;22.530;2022-10-31T09:15:35;10.70;;;7.95;;
56997;SDS011;42890;44.244;22.530;2022-10-31T09:18:01;10.27;;;8.82;;
56997;SDS011;42890;44.244;22.530;2022-10-31T09:20:28;11.20;;;8.27;;
56997;SDS011;42890;44.244;22.530;2022-10-31T09:23:02;9.95;;;7.85;;
56997;SDS011;42890;44.244;22.530;2022-10-31T09:25:28;14.05;;;8.13;;
56997;SDS011;42890;44.244;22.530;2022-10-31T09:27:55;9.50;;;7.22;;
56997;SDS011;42890;44.244;22.530;2022-10-31T09:30:22;12.02;;;7.43;;
56997;SDS011;42890;44.244;22.530;2022-10-31T09:32:48;13.45;;;8.65;;
56997;SDS011;42890;44.244;22.530;2022-10-31T09:35:20;11.30;;;6.78;;
56997;SDS011;42890;44.244;22.530;2022-10-31T09:37:46;22.27;;;7.78;;
56997;SDS011;42890;44.244;22.530;2022-10-31T09:40:12;14.05;;;7.45;;
56997;SDS011;42890;44.244;22.530;2022-10-31T09:42:50;14.77;;;8.13;;
56997;SDS011;42890;44.244;22.530;2022-10-31T09:53:00;9.52;;;6.40;;
56997;SDS011;42890;44.244;22.530;2022-10-31T09:55:31;12.57;;;6.32;;
56997;SDS011;42890;44.244;22.530;2022-10-31T09:57:59;10.70;;;7.50;;
56997;SDS011;42890;44.244;22.530;2022-10-31T10:00:25;14.20;;;8.35;;
56997;SDS011;42890;44.244;22.530;2022-10-31T10:02:53;12.40;;;8.38;;
56997;SDS011;42890;44.244;22.530;2022-10-31T10:05:24;13.57;;;8.30;;
56997;SDS011;42890;44.244;22.530;2022-10-31T10:10:36;14.57;;;8.88;;
56997;SDS011;42890;44.244;22.530;2022-10-31T10:13:13;13.85;;;7.88;;
56997;SDS011;42890;44.244;22.530;2022-10-31T10:18:11;13.45;;;8.77;;
56997;SDS011;42890;44.244;22.530;2022-10-31T10:28:38;18.17;;;16.25;;
56997;SDS011;42890;44.244;22.530;2022-10-31T10:36:18;13.07;;;9.38;;
56997;SDS011;42890;44.244;22.530;2022-10-31T10:38:53;9.45;;;6.95;;
56997;SDS011;42890;44.244;22.530;2022-10-31T10:41:22;9.50;;;5.60;;
56997;SDS011;42890;44.244;22.530;2022-10-31T10:43:49;9.25;;;6.10;;
56997;SDS011;42890;44.244;22.530;2022-10-31T10:46:19;8.98;;;6.15;;
56997;SDS011;42890;44.244;22.530;2022-10-31T10:49:09;8.25;;;6.45;;
56997;SDS011;42890;44.244;22.530;2022-10-31T10:51:40;10.70;;;6.40;;
56997;SDS011;42890;44.244;22.530;2022-10-31T10:59:12;10.27;;;5.90;;
56997;SDS011;42890;44.244;22.530;2022-10-31T11:01:39;8.45;;;5.50;;
56997;SDS011;42890;44.244;22.530;2022-10-31T11:09:28;7.38;;;4.20;;
56997;SDS011;42890;44.244;22.530;2022-10-31T11:11:54;7.28;;;4.40;;
56997;SDS011;42890;44.244;22.530;2022-10-31T11:14:24;6.90;;;4.38;;
56997;SDS011;42890;44.244;22.530;2022-10-31T11:17:07;7.18;;;4.40;;
56997;SDS011;42890;44.244;22.530;2022-10-31T11:19:33;6.82;;;4.10;;
56997;SDS011;42890;44.244;22.530;2022-10-31T11:22:07;8.77;;;4.55;;
56997;SDS011;42890;44.244;22.530;2022-10-31T11:24:38;7.50;;;4.90;;
56997;SDS011;42890;44.244;22.530;2022-10-31T11:27:16;9.18;;;3.67;;
56997;SDS011;42890;44.244;22.530;2022-10-31T11:29:42;11.20;;;4.07;;
56997;SDS011;42890;44.244;22.530;2022-10-31T11:32:16;4.88;;;3.63;;
56997;SDS011;42890;44.244;22.530;2022-10-31T11:34:44;5.53;;;3.58;;
56997;SDS011;42890;44.244;22.530;2022-10-31T11:37:21;7.97;;;4.00;;
56997;SDS011;42890;44.244;22.530;2022-10-31T11:39:52;13.52;;;4.20;;
56997;SDS011;42890;44.244;22.530;2022-10-31T11:42:26;7.80;;;3.92;;
56997;SDS011;42890;44.244;22.530;2022-10-31T11:44:53;6.55;;;3.70;;
56997;SDS011;42890;44.244;22.530;2022-10-31T11:47:29;8.35;;;3.60;;
56997;SDS011;42890;44.244;22.530;2022-10-31T11:49:57;7.78;;;3.55;;
56997;SDS011;42890;44.244;22.530;2022-10-31T11:52:27;6.93;;;3.42;;
56997;SDS011;42890;44.244;22.530;2022-10-31T11:54:58;5.38;;;3.13;;
56997;SDS011;42890;44.244;22.530;2022-10-31T11:57:25;8.20;;;3.70;;
56997;SDS011;42890;44.244;22.530;2022-10-31T11:59:56;10.35;;;4.13;;
56997;SDS011;42890;44.244;22.530;2022-10-31T12:02:23;9.27;;;3.55;;
56997;SDS011;42890;44.244;22.530;2022-10-31T12:05:01;9.50;;;4.18;;
56997;SDS011;42890;44.244;22.530;2022-10-31T12:07:30;11.95;;;4.20;;
56997;SDS011;42890;44.244;22.530;2022-10-31T12:09:56;7.50;;;3.50;;
56997;SDS011;42890;44.244;22.530;2022-10-31T12:23:15;9.23;;;4.72;;
56997;SDS011;42890;44.244;22.530;2022-10-31T12:25:50;9.25;;;4.00;;
56997;SDS011;42890;44.244;22.530;2022-10-31T12:28:39;9.35;;;4.32;;
56997;SDS011;42890;44.244;22.530;2022-10-31T12:31:18;9.45;;;4.40;;
56997;SDS011;42890;44.244;22.530;2022-10-31T12:41:51;12.63;;;4.35;;
56997;SDS011;42890;44.244;22.530;2022-10-31T12:44:27;8.90;;;4.93;;
56997;SDS011;42890;44.244;22.530;2022-10-31T12:47:03;14.18;;;5.05;;
56997;SDS011;42890;44.244;22.530;2022-10-31T12:54:56;16.23;;;5.50;;
56997;SDS011;42890;44.244;22.530;2022-10-31T12:57:33;12.52;;;7.47;;
56997;SDS011;42890;44.244;22.530;2022-10-31T13:00:04;21.25;;;14.55;;
56997;SDS011;42890;44.244;22.530;2022-10-31T13:02:35;17.45;;;9.88;;
56997;SDS011;42890;44.244;22.530;2022-10-31T13:05:05;12.70;;;8.60;;
56997;SDS011;42890;44.244;22.530;2022-10-31T13:07:40;22.90;;;15.38;;
56997;SDS011;42890;44.244;22.530;2022-10-31T13:12:46;19.40;;;8.07;;
56997;SDS011;42890;44.244;22.530;2022-10-31T13:15:30;13.80;;;7.85;;
56997;SDS011;42890;44.244;22.530;2022-10-31T13:17:57;22.55;;;12.60;;
56997;SDS011;42890;44.244;22.530;2022-10-31T13:20:41;17.25;;;9.38;;
56997;SDS011;42890;44.244;22.530;2022-10-31T13:25:44;15.63;;;10.50;;
56997;SDS011;42890;44.244;22.530;2022-10-31T13:30:57;23.70;;;12.63;;
56997;SDS011;42890;44.244;22.530;2022-10-31T13:33:27;31.55;;;25.17;;
56997;SDS011;42890;44.244;22.530;2022-10-31T13:38:48;32.65;;;25.00;;
56997;SDS011;42890;44.244;22.530;2022-10-31T13:41:20;48.22;;;38.92;;
56997;SDS011;42890;44.244;22.530;2022-10-31T13:48:59;35.33;;;29.08;;
56997;SDS011;42890;44.244;22.530;2022-10-31T13:51:34;34.00;;;26.50;;
56997;SDS011;42890;44.244;22.530;2022-10-31T13:54:05;42.03;;;34.92;;
56997;SDS011;42890;44.244;22.530;2022-10-31T13:56:33;45.30;;;37.55;;
56997;SDS011;42890;44.244;22.530;2022-10-31T14:01:36;71.40;;;57.17;;
56997;SDS011;42890;44.244;22.530;2022-10-31T14:04:06;46.25;;;32.78;;
56997;SDS011;42890;44.244;22.530;2022-10-31T14:06:37;44.08;;;31.77;;
56997;SDS011;42890;44.244;22.530;2022-10-31T14:09:04;47.08;;;39.20;;
56997;SDS011;42890;44.244;22.530;2022-10-31T14:11:30;52.92;;;42.60;;
56997;SDS011;42890;44.244;22.530;2022-10-31T14:13:57;50.17;;;40.92;;
56997;SDS011;42890;44.244;22.530;2022-10-31T14:16:30;59.45;;;45.63;;
56997;SDS011;42890;44.244;22.530;2022-10-31T14:19:06;55.35;;;39.17;;
56997;SDS011;42890;44.244;22.530;2022-10-31T14:21:37;76.93;;;50.83;;
56997;SDS011;42890;44.244;22.530;2022-10-31T14:26:55;51.00;;;43.50;;
56997;SDS011;42890;44.244;22.530;2022-10-31T14:29:26;38.58;;;34.40;;
56997;SDS011;42890;44.244;22.530;2022-10-31T14:34:42;47.03;;;29.63;;
56997;SDS011;42890;44.244;22.530;2022-10-31T14:40:00;33.58;;;29.60;;
56997;SDS011;42890;44.244;22.530;2022-10-31T14:42:32;42.28;;;35.97;;
56997;SDS011;42890;44.244;22.530;2022-10-31T14:50:20;29.23;;;26.05;;
56997;SDS011;42890;44.244;22.530;2022-10-31T14:52:52;38.67;;;23.65;;
56997;SDS011;42890;44.244;22.530;2022-10-31T14:55:19;26.73;;;23.83;;
56997;SDS011;42890;44.244;22.530;2022-10-31T14:57:50;39.90;;;32.58;;
56997;SDS011;42890;44.244;22.530;2022-10-31T15:00:21;40.80;;;33.47;;
56997;SDS011;42890;44.244;22.530;2022-10-31T15:05:33;39.83;;;29.33;;
56997;SDS011;42890;44.244;22.530;2022-10-31T15:08:00;29.42;;;23.63;;
56997;SDS011;42890;44.244;22.530;2022-10-31T15:10:31;28.95;;;22.13;;
56997;SDS011;42890;44.244;22.530;2022-10-31T15:13:10;31.50;;;22.05;;
56997;SDS011;42890;44.244;22.530;2022-10-31T15:15:43;35.50;;;22.27;;
56997;SDS011;42890;44.244;22.530;2022-10-31T15:18:16;36.45;;;22.17;;
56997;SDS011;42890;44.244;22.530;2022-10-31T15:20:43;36.45;;;21.70;;
56997;SDS011;42890;44.244;22.530;2022-10-31T15:23:10;38.63;;;23.45;;
56997;SDS011;42890;44.244;22.530;2022-10-31T15:25:37;37.80;;;24.17;;
56997;SDS011;42890;44.244;22.530;2022-10-31T15:28:12;33.63;;;24.98;;
56997;SDS011;42890;44.244;22.530;2022-10-31T15:30:38;40.08;;;28.33;;
56997;SDS011;42890;44.244;22.530;2022-10-31T15:33:16;40.75;;;30.92;;
56997;SDS011;42890;44.244;22.530;2022-10-31T15:35:53;43.15;;;33.80;;
56997;SDS011;42890;44.244;22.530;2022-10-31T15:38:20;53.40;;;36.72;;
56997;SDS011;42890;44.244;22.530;2022-10-31T15:40:51;56.58;;;45.22;;
56997;SDS011;42890;44.244;22.530;2022-10-31T15:43:18;78.28;;;56.15;;
56997;SDS011;42890;44.244;22.530;2022-10-31T15:45:45;75.05;;;64.03;;
56997;SDS011;42890;44.244;22.530;2022-10-31T15:48:44;102.60;;;77.72;;
56997;SDS011;42890;44.244;22.530;2022-10-31T15:51:05;134.23;;;92.88;;
56997;SDS011;42890;44.244;22.530;2022-10-31T15:53:35;139.85;;;92.78;;
56997;SDS011;42890;44.244;22.530;2022-10-31T15:56:02;131.57;;;87.57;;
56997;SDS011;42890;44.244;22.530;2022-10-31T15:58:30;162.23;;;97.55;;
56997;SDS011;42890;44.244;22.530;2022-10-31T16:00:59;165.20;;;103.32;;
56997;SDS011;42890;44.244;22.530;2022-10-31T16:03:27;170.13;;;104.32;;
56997;SDS011;42890;44.244;22.530;2022-10-31T16:05:54;168.40;;;101.43;;
56997;SDS011;42890;44.244;22.530;2022-10-31T16:08:31;179.90;;;106.65;;
56997;SDS011;42890;44.244;22.530;2022-10-31T16:10:58;188.45;;;116.43;;
56997;SDS011;42890;44.244;22.530;2022-10-31T16:13:26;187.25;;;119.60;;
56997;SDS011;42890;44.244;22.530;2022-10-31T16:15:55;195.25;;;118.07;;
56997;SDS011;42890;44.244;22.530;2022-10-31T16:18:23;188.85;;;115.38;;
56997;SDS011;42890;44.244;22.530;2022-10-31T16:20:50;175.40;;;107.38;;
56997;SDS011;42890;44.244;22.530;2022-10-31T16:23:18;169.90;;;109.25;;
56997;SDS011;42890;44.244;22.530;2022-10-31T16:25:44;178.13;;;117.55;;
56997;SDS011;42890;44.244;22.530;2022-10-31T16:28:16;180.50;;;115.68;;
56997;SDS011;42890;44.244;22.530;2022-10-31T16:30:43;185.25;;;117.15;;
56997;SDS011;42890;44.244;22.530;2022-10-31T16:35:56;158.05;;;100.63;;
56997;SDS011;42890;44.244;22.530;2022-10-31T16:38:22;121.57;;;80.82;;
56997;SDS011;42890;44.244;22.530;2022-10-31T16:40:49;124.65;;;79.38;;
56997;SDS011;42890;44.244;22.530;2022-10-31T16:43:16;97.80;;;75.88;;
56997;SDS011;42890;44.244;22.530;2022-10-31T16:45:51;109.38;;;72.00;;